.
WxDataArchive / Data Records for 2008-08-26
2008-08-25 August 2008 2008-08-27

Data Records for Tuesday, 26 August 2008

Time	Temp	Chill	HIndex	Humid	Dewpt	 Wind 	HiWind	WindDir	Rain 	Barom 
-----	----	-----	------	-----	-----	------	------	-------	-----	----- 
00:00	58.9	58.9	58.9	75	51.0	0	0	---	0.00	30.023 
00:05	58.7	58.7	58.7	76	51.2	0	1	90	0.00	30.022 
00:10	58.6	58.6	58.6	76	51.1	0	2	90	0.00	30.021 
00:15	58.4	58.4	58.4	77	51.2	0	1	90	0.00	30.023 
00:20	58.3	58.3	58.3	77	51.1	0	1	90	0.00	30.024 
00:25	58.1	58.1	58.1	78	51.3	0	1	90	0.00	30.024 
00:30	58.0	58.0	58.0	78	51.2	0	0	---	0.00	30.024 
00:35	57.6	57.6	57.6	78	50.8	0	1	90	0.00	30.024 
00:40	57.3	57.3	57.3	79	50.8	0	1	90	0.00	30.023 
00:45	57.2	57.2	57.2	81	51.4	0	1	90	0.00	30.023 
00:50	57.0	57.0	57.0	81	51.2	0	2	90	0.00	30.024 
00:55	57.0	57.0	57.0	81	51.2	1	4	90	0.00	30.023 
01:00	57.0	57.0	57.0	81	51.2	0	1	112	0.00	30.021 
01:05	56.9	56.9	56.9	81	51.1	0	1	112	0.00	30.020 
01:10	56.9	56.9	56.9	81	51.1	0	1	112	0.00	30.019 
01:15	56.7	56.7	56.7	81	50.9	0	2	112	0.00	30.017 
01:20	56.7	56.7	56.7	80	50.6	1	4	112	0.00	30.018 
01:25	56.7	56.7	56.7	80	50.6	1	3	112	0.00	30.016 
01:30	56.7	56.7	56.7	79	50.3	1	2	68	0.00	30.017 
01:35	56.6	56.6	56.6	79	50.2	1	3	68	0.00	30.017 
01:40	56.6	56.6	56.6	78	49.8	1	5	112	0.00	30.017 
01:45	56.5	56.5	56.5	78	49.7	1	3	112	0.00	30.012 
01:50	56.5	56.5	56.5	78	49.7	1	6	112	0.00	30.009 
01:55	56.3	56.3	56.3	78	49.5	1	5	112	0.00	30.008 
02:00	56.3	56.3	56.3	78	49.5	1	4	112	0.00	30.010 
02:05	56.2	56.2	56.2	78	49.4	0	1	112	0.00	30.009 
02:10	56.0	56.0	56.0	79	49.6	0	3	68	0.00	30.008 
02:15	56.0	56.0	56.0	79	49.6	0	3	90	0.00	30.007 
02:20	55.9	55.9	55.9	79	49.5	1	3	112	0.00	30.008 
02:25	55.9	55.9	55.9	79	49.5	1	4	68	0.00	30.008 
02:30	55.9	55.9	55.9	79	49.5	0	2	112	0.00	30.007 
02:35	55.9	55.9	55.9	79	49.5	1	5	112	0.00	30.007 
02:40	55.7	55.7	55.7	79	49.3	1	3	90	0.00	30.008 
02:45	55.7	55.7	55.7	79	49.3	1	5	90	0.00	30.007 
02:50	55.6	55.6	55.6	79	49.2	1	4	68	0.00	30.007 
02:55	55.4	55.4	55.4	79	49.0	1	4	90	0.00	30.007 
03:00	55.4	55.4	55.4	79	49.0	1	4	112	0.00	30.007 
03:05	55.3	55.3	55.3	79	48.9	1	3	90	0.00	30.008 
03:10	55.3	55.3	55.3	79	48.9	1	5	90	0.00	30.008 
03:15	55.1	55.1	55.1	79	48.7	1	4	90	0.00	30.008 
03:20	55.1	55.1	55.1	80	49.0	1	5	135	0.00	30.007 
03:25	55.0	55.0	55.0	80	48.9	1	3	112	0.00	30.007 
03:30	55.0	55.0	55.0	80	48.9	1	4	112	0.00	30.006 
03:35	55.0	55.0	55.0	80	48.9	0	2	112	0.00	30.005 
03:40	55.0	55.0	55.0	80	48.9	1	3	112	0.00	30.005 
03:45	55.0	55.0	55.0	81	49.3	1	5	112	0.00	30.007 
03:50	54.8	54.8	54.8	81	49.1	0	2	112	0.00	30.007 
03:55	54.8	54.8	54.8	81	49.1	0	2	112	0.00	30.006 
04:00	54.8	54.8	54.8	82	49.4	0	2	112	0.00	30.005 
04:05	54.7	54.7	54.7	82	49.3	0	3	112	0.00	30.007 
04:10	54.7	54.7	54.7	82	49.3	1	3	112	0.00	30.005 
04:15	54.7	54.7	54.7	82	49.3	0	2	112	0.00	30.005 
04:20	54.7	54.7	54.7	83	49.6	1	3	112	0.00	30.004 
04:25	54.5	54.5	54.5	83	49.4	0	3	112	0.00	30.002 
04:30	54.5	54.5	54.5	83	49.4	1	3	112	0.00	30.004 
04:35	54.5	54.5	54.5	84	49.8	0	2	112	0.00	30.005 
04:40	54.5	54.5	54.5	84	49.8	1	3	112	0.00	30.004 
04:45	54.4	54.4	54.4	84	49.7	1	3	45	0.00	30.005 
04:50	54.4	54.4	54.4	84	49.7	1	3	68	0.00	30.007 
04:55	54.4	54.4	54.4	84	49.7	1	5	90	0.00	30.006 
05:00	54.4	54.4	54.4	85	50.0	0	3	112	0.00	30.005 
05:05	54.2	54.2	54.2	85	49.8	1	3	90	0.00	30.004 
05:10	54.2	54.2	54.2	85	49.8	1	4	112	0.00	30.004 
05:15	54.2	54.2	54.2	86	50.1	1	4	112	0.00	30.003 
05:20	54.2	54.2	54.2	86	50.1	1	2	112	0.00	30.003 
05:25	54.2	54.2	54.2	86	50.1	0	2	112	0.00	30.006 
05:30	54.1	54.1	54.1	86	50.0	1	3	112	0.00	30.007 
05:35	54.1	54.1	54.1	86	50.0	0	3	112	0.00	30.008 
05:40	54.1	54.1	54.1	86	50.0	0	1	112	0.00	30.008 
05:45	54.1	54.1	54.1	87	50.3	1	2	112	0.00	30.006 
05:50	54.1	54.1	54.1	87	50.3	0	2	90	0.00	30.008 
05:55	54.1	54.1	54.1	87	50.3	0	3	90	0.00	30.009 
06:00	54.1	54.1	54.1	87	50.3	0	1	90	0.00	30.006 
06:05	54.1	54.1	54.1	87	50.3	0	2	90	0.00	30.010 
06:10	54.1	54.1	54.1	87	50.3	1	3	68	0.00	30.011 
06:15	54.1	54.1	54.1	87	50.3	1	3	68	0.00	30.010 
06:20	54.1	54.1	54.1	87	50.3	1	3	68	0.00	30.010 
06:25	54.1	54.1	54.1	87	50.3	1	2	68	0.00	30.011 
06:30	54.1	54.1	54.1	87	50.3	1	5	68	0.00	30.012 
06:35	54.1	54.1	54.1	87	50.3	2	5	90	0.00	30.010 
06:40	54.1	54.1	54.1	87	50.3	1	3	112	0.00	30.011 
06:45	54.4	54.4	54.4	87	50.6	1	4	112	0.00	30.013 
06:50	54.5	54.5	54.5	86	50.4	2	5	90	0.00	30.013 
06:55	54.7	54.7	54.7	85	50.3	2	6	112	0.00	30.011 
07:00	54.8	54.8	54.8	85	50.4	2	6	90	0.00	30.012 
07:05	55.1	55.1	55.1	84	50.4	3	10	90	0.00	30.017 
07:10	55.6	55.6	55.6	84	50.8	2	5	90	0.00	30.016 
07:15	56.0	56.0	56.0	83	50.9	2	6	90	0.00	30.012 
07:20	56.5	56.5	56.5	82	51.1	2	5	112	0.00	30.012 
07:25	57.0	57.0	57.0	81	51.2	2	5	112	0.00	30.012 
07:30	57.3	57.3	57.3	81	51.5	2	6	112	0.00	30.012 
07:35	57.8	57.8	57.8	80	51.7	2	4	112	0.00	30.011 
07:40	58.1	58.1	58.1	80	52.0	2	6	112	0.00	30.010 
07:45	58.4	58.4	58.4	79	51.9	2	5	90	0.00	30.010 
07:50	58.7	58.7	58.7	79	52.2	1	3	90	0.00	30.011 
07:55	58.9	58.9	58.9	79	52.4	3	7	112	0.00	30.010 
08:00	59.0	59.0	59.0	79	52.5	3	6	90	0.00	30.010 
08:05	59.3	59.3	59.3	79	52.8	2	6	90	0.00	30.010 
08:10	59.6	59.6	59.6	78	52.7	2	5	90	0.00	30.011 
08:15	59.9	59.9	59.9	77	52.7	3	9	90	0.00	30.010 
08:20	60.4	60.4	60.4	78	53.5	1	4	90	0.00	30.011 
08:25	60.5	60.5	60.5	75	52.5	2	5	90	0.00	30.010 
08:30	61.0	61.0	61.0	74	52.6	3	11	90	0.00	30.007 
08:35	61.3	61.3	61.3	74	52.9	3	6	90	0.00	30.010 
08:40	61.6	61.6	61.6	73	52.9	3	9	90	0.00	30.006 
08:45	62.3	62.3	62.3	72	53.2	3	9	68	0.00	30.007 
08:50	62.9	62.9	62.9	70	53.0	4	9	90	0.00	30.005 
08:55	63.5	63.5	63.5	69	53.1	3	10	90	0.00	30.004 
09:00	64.0	64.0	64.0	68	53.2	4	9	90	0.00	30.005 
09:05	64.5	64.5	64.5	65	52.5	4	10	90	0.00	30.007 
09:10	65.0	65.0	65.0	65	52.9	3	12	112	0.00	30.006 
09:15	65.5	65.5	65.5	63	52.6	5	11	90	0.00	30.009 
09:20	66.0	66.0	66.0	64	53.5	3	9	90	0.00	30.010 
09:25	66.3	66.3	66.3	62	52.9	5	13	90	0.00	30.011 
09:30	66.6	66.6	66.6	63	53.6	4	13	90	0.00	30.009 
09:35	67.4	67.4	67.4	61	53.5	2	7	112	0.00	30.010 
09:40	68.1	68.1	68.1	59	53.2	4	10	90	0.00	30.010 
09:45	68.6	68.6	68.6	59	53.7	4	10	90	0.00	30.010 
09:50	68.4	68.4	68.4	58	53.0	6	14	90	0.00	30.010 
09:55	68.4	68.4	68.4	58	53.0	6	13	90	0.00	30.008 
10:00	68.9	68.9	68.9	58	53.5	4	10	90	0.00	30.008 
10:05	69.1	69.1	69.1	57	53.2	6	12	90	0.00	30.010 
10:10	69.3	69.3	69.3	56	52.9	6	12	90	0.00	30.010 
10:15	69.4	69.4	69.4	56	53.0	5	15	90	0.00	30.010 
10:20	69.9	69.9	69.9	55	53.0	4	9	90	0.00	30.009 
10:25	70.1	70.1	70.1	54	52.7	5	11	90	0.00	30.008 
10:30	70.3	70.3	70.3	53	52.3	5	13	90	0.00	30.009 
10:35	70.4	70.4	70.4	51	51.4	6	15	90	0.00	30.010 
10:40	70.4	70.4	70.4	52	51.9	5	10	90	0.00	30.009 
10:45	70.8	70.8	70.8	53	52.8	5	12	90	0.00	30.005 
10:50	71.3	71.3	71.3	50	51.7	5	13	90	0.00	29.999 
10:55	72.1	72.1	72.1	49	51.9	3	7	90	0.00	29.997 
11:00	73.0	73.0	73.0	46	51.0	3	9	90	0.00	29.994 
11:05	73.5	73.5	73.5	44	50.2	4	8	90	0.00	29.994 
11:10	73.9	73.9	73.9	43	50.0	4	7	90	0.00	29.994 
11:15	73.7	73.7	73.7	41	48.5	5	12	90	0.00	29.993 
11:20	73.5	73.5	73.5	42	49.0	5	16	90	0.00	29.993 
11:25	73.7	73.7	73.7	41	48.5	4	11	90	0.00	29.993 
11:30	73.9	73.9	73.9	41	48.7	5	12	90	0.00	29.990 
11:35	74.2	74.2	74.2	42	49.6	5	10	112	0.00	29.989 
11:40	74.6	74.6	74.6	41	49.3	5	13	112	0.00	29.986 
11:45	74.7	74.7	74.7	40	48.8	5	15	90	0.00	29.981 
11:50	74.7	74.7	74.7	41	49.4	6	14	90	0.00	29.979 
11:55	74.9	74.9	74.9	41	49.6	4	10	90	0.00	29.976 
12:00	75.4	75.4	77.6	40	49.4	5	10	90	0.00	29.976 
12:05	75.8	75.8	77.6	36	46.9	4	11	90	0.00	29.977 
12:10	75.6	75.6	77.7	40	49.6	6	16	90	0.00	29.978 
12:15	75.8	75.8	77.7	38	48.4	4	11	112	0.00	29.977 
12:20	76.3	76.3	77.8	38	48.8	4	11	90	0.00	29.976 
12:25	76.8	76.8	78.1	39	49.9	3	10	90	0.00	29.973 
12:30	77.2	77.2	78.3	39	50.3	3	10	45	0.00	29.973 
12:35	77.4	77.4	78.4	39	50.5	4	12	112	0.00	29.973 
12:40	77.2	77.2	78.3	40	51.0	5	12	90	0.00	29.972 
12:45	77.6	77.6	78.5	40	51.3	4	10	90	0.00	29.971 
12:50	78.1	78.1	78.8	40	51.8	3	10	90	0.00	29.966 
12:55	78.1	78.1	78.8	40	51.8	5	13	90	0.00	29.965 
13:00	77.9	77.9	78.7	40	51.6	5	12	112	0.00	29.963 
13:05	78.1	78.1	78.8	40	51.8	5	13	90	0.00	29.962 
13:10	78.6	78.6	78.9	37	50.1	3	13	90	0.00	29.961 
13:15	78.8	78.8	79.1	39	51.7	4	10	90	0.00	29.960 
13:20	79.2	79.2	79.3	38	51.4	5	11	90	0.00	29.959 
13:25	79.2	79.2	79.3	38	51.4	4	11	90	0.00	29.958 
13:30	79.4	79.4	79.2	35	49.3	5	11	112	0.00	29.955 
13:35	79.4	79.4	79.2	35	49.3	3	9	112	0.00	29.951 
13:40	79.6	79.6	79.2	33	47.9	5	12	90	0.00	29.947 
13:45	79.6	79.6	79.3	35	49.5	5	10	90	0.00	29.945 
13:50	79.9	79.9	79.6	36	50.5	3	9	90	0.00	29.944 
13:55	80.1	80.1	79.5	34	49.2	4	9	90	0.00	29.943 
14:00	80.3	80.3	79.7	34	49.3	3	9	112	0.00	29.942 
14:05	80.1	80.1	79.3	31	46.7	4	12	90	0.00	29.945 
14:10	80.3	80.3	79.5	32	47.7	5	13	90	0.00	29.945 
14:15	80.3	80.3	79.6	33	48.5	4	11	90	0.00	29.943 
14:20	80.3	80.3	79.5	32	47.7	5	12	90	0.00	29.944 
14:25	79.9	79.9	79.3	33	48.2	4	7	90	0.00	29.943 
14:30	80.1	80.1	79.3	31	46.7	4	11	112	0.00	29.941 
14:35	80.3	80.3	79.6	33	48.5	5	13	90	0.00	29.940 
14:40	80.3	80.3	79.7	34	49.3	3	13	112	0.00	29.936 
14:45	80.5	80.5	79.7	33	48.7	3	10	90	0.00	29.931 
14:50	80.5	80.5	79.6	32	47.9	4	10	90	0.00	29.930 
14:55	80.3	80.3	79.6	33	48.5	4	12	90	0.00	29.932 
15:00	80.7	80.7	79.8	32	48.1	4	11	90	0.00	29.929 
15:05	80.7	80.7	79.8	33	48.9	3	7	90	0.00	29.928 
15:10	80.9	80.9	80.0	33	49.1	4	12	90	0.00	29.928 
15:15	80.9	80.9	79.8	31	47.4	4	10	112	0.00	29.927 
15:20	80.3	80.3	79.6	33	48.5	4	10	90	0.00	29.928 
15:25	80.3	80.3	79.4	31	46.9	3	9	90	0.00	29.928 
15:30	80.3	80.3	79.4	30	46.0	4	12	90	0.00	29.925 
15:35	80.1	80.1	79.3	31	46.7	5	12	90	0.00	29.929 
15:40	79.8	79.8	79.2	32	47.3	4	13	90	0.00	29.928 
15:45	79.8	79.8	79.2	32	47.3	4	13	90	0.00	29.925 
15:50	79.8	79.8	79.2	32	47.3	4	10	90	0.00	29.926 
15:55	79.8	79.8	79.1	31	46.5	6	14	90	0.00	29.928 
16:00	79.4	79.4	79.0	32	46.9	6	13	90	0.00	29.929 
16:05	79.2	79.2	78.7	30	45.1	5	11	112	0.00	29.931 
16:10	79.0	79.0	78.7	31	45.8	6	13	90	0.00	29.931 
16:15	79.2	79.2	78.9	32	46.8	4	10	90	0.00	29.930 
16:20	79.4	79.4	78.8	30	45.2	4	10	90	0.00	29.932 
16:25	79.4	79.4	78.8	30	45.2	4	11	90	0.00	29.932 
16:30	79.4	79.4	78.9	31	46.1	3	7	90	0.00	29.932 
16:35	79.4	79.4	78.9	31	46.1	3	6	90	0.00	29.932 
16:40	79.2	79.2	78.8	31	45.9	4	11	112	0.00	29.932 
16:45	78.8	78.8	78.6	32	46.4	4	11	90	0.00	29.932 
16:50	78.6	78.6	78.5	32	46.3	3	5	112	0.00	29.932 
16:55	78.5	78.5	78.5	32	46.2	4	10	90	0.00	29.932 
17:00	78.3	78.3	78.5	33	46.8	3	7	90	0.00	29.932 
17:05	78.1	78.1	78.5	35	48.2	3	9	90	0.00	29.933 
17:10	77.9	77.9	78.4	35	48.0	4	9	90	0.00	29.933 
17:15	77.6	77.6	78.2	34	47.0	4	13	90	0.00	29.932 
17:20	77.4	77.4	78.1	35	47.6	3	7	112	0.00	29.933 
17:25	77.2	77.2	78.1	35	47.4	3	10	112	0.00	29.934 
17:30	77.0	77.0	78.0	35	47.2	4	10	112	0.00	29.933 
17:35	76.8	76.8	78.0	37	48.5	3	7	90	0.00	29.932 
17:40	76.7	76.7	78.0	38	49.2	3	10	90	0.00	29.933 
17:45	76.5	76.5	77.9	37	48.3	4	11	90	0.00	29.933 
17:50	76.1	76.1	77.7	37	47.9	3	7	90	0.00	29.932 
17:55	76.0	76.0	77.8	39	49.2	3	9	90	0.00	29.931 
18:00	75.8	75.8	77.7	39	49.1	4	11	90	0.00	29.931 
18:05	75.4	75.4	77.6	39	48.7	4	9	90	0.00	29.932 
18:10	75.3	75.3	77.6	40	49.3	3	9	90	0.00	29.932 
18:15	75.1	75.1	77.6	41	49.8	3	6	90	0.00	29.930 
18:20	74.9	74.9	74.9	43	50.9	3	7	112	0.00	29.931 
18:25	74.7	74.7	74.7	43	50.7	3	7	90	0.00	29.932 
18:30	74.4	74.4	74.4	44	51.0	4	9	90	0.00	29.932 
18:35	74.2	74.2	74.2	46	52.1	2	5	112	0.00	29.934 
18:40	73.9	73.9	73.9	47	52.4	3	6	90	0.00	29.933 
18:45	73.7	73.7	73.7	48	52.8	1	5	112	0.00	29.933 
18:50	73.3	73.3	73.3	49	53.0	1	7	112	0.00	29.933 
18:55	73.0	73.0	73.0	50	53.2	1	3	68	0.00	29.933 
19:00	72.5	72.5	72.5	49	52.2	2	6	90	0.00	29.934 
19:05	72.3	72.3	72.3	50	52.6	2	6	112	0.00	29.931 
19:10	72.0	72.0	72.0	51	52.9	1	3	68	0.00	29.931 
19:15	71.6	71.6	71.6	52	53.0	0	2	68	0.00	29.931 
19:20	71.1	71.1	71.1	53	53.1	1	4	112	0.00	29.932 
19:25	70.8	70.8	70.8	54	53.3	1	2	112	0.00	29.933 
19:30	70.3	70.3	70.3	54	52.9	1	3	112	0.00	29.934 
19:35	69.9	69.9	69.9	55	53.0	1	3	112	0.00	29.934 
19:40	69.6	69.6	69.6	55	52.7	2	5	112	0.00	29.935 
19:45	69.4	69.4	69.4	56	53.0	1	4	112	0.00	29.937 
19:50	69.1	69.1	69.1	56	52.7	1	4	112	0.00	29.939 
19:55	68.9	68.9	68.9	57	53.0	1	4	112	0.00	29.941 
20:00	68.6	68.6	68.6	58	53.2	0	4	112	0.00	29.942 
20:05	68.3	68.3	68.3	58	52.9	1	5	112	0.00	29.940 
20:10	68.1	68.1	68.1	59	53.2	2	5	90	0.00	29.940 
20:15	67.9	67.9	67.9	59	53.0	2	6	112	0.00	29.942 
20:20	67.8	67.8	67.8	60	53.4	1	3	90	0.00	29.943 
20:25	67.6	67.6	67.6	61	53.7	1	5	90	0.00	29.945 
20:30	67.3	67.3	67.3	62	53.8	1	5	90	0.00	29.948 
20:35	67.1	67.1	67.1	62	53.6	1	4	90	0.00	29.948 
20:40	66.9	66.9	66.9	63	53.9	2	6	90	0.00	29.949 
20:45	66.6	66.6	66.6	63	53.6	1	3	112	0.00	29.947 
20:50	66.4	66.4	66.4	64	53.8	1	5	112	0.00	29.947 
20:55	66.0	66.0	66.0	65	53.9	1	2	90	0.00	29.947 
21:00	65.6	65.6	65.6	66	53.9	1	3	90	0.00	29.948 
21:05	65.3	65.3	65.3	67	54.1	1	4	90	0.00	29.944 
21:10	65.0	65.0	65.0	67	53.8	2	4	90	0.00	29.945 
21:15	65.0	65.0	65.0	68	54.2	1	5	90	0.00	29.944 
21:20	64.8	64.8	64.8	69	54.4	2	5	90	0.00	29.944 
21:25	64.7	64.7	64.7	69	54.3	2	4	112	0.00	29.944 
21:30	64.7	64.7	64.7	70	54.7	1	4	112	0.00	29.944 
21:35	64.5	64.5	64.5	70	54.5	1	4	112	0.00	29.944 
21:40	64.3	64.3	64.3	71	54.7	1	7	112	0.00	29.946 
21:45	64.0	64.0	64.0	71	54.4	1	3	112	0.00	29.945 
21:50	63.9	63.9	63.9	72	54.7	0	2	112	0.00	29.945 
21:55	63.5	63.5	63.5	73	54.7	1	3	90	0.00	29.945 
22:00	63.4	63.4	63.4	73	54.6	1	3	90	0.00	29.945 
22:05	63.2	63.2	63.2	74	54.8	1	6	90	0.00	29.941 
22:10	63.1	63.1	63.1	75	55.0	1	3	90	0.00	29.939 
22:15	62.9	62.9	62.9	76	55.2	1	3	90	0.00	29.940 
22:20	62.7	62.7	62.7	77	55.4	1	2	112	0.00	29.939 
22:25	62.7	62.7	62.7	77	55.4	0	2	112	0.00	29.937 
22:30	62.6	62.6	62.6	78	55.6	1	4	90	0.00	29.932 
22:35	62.6	62.6	62.6	78	55.6	1	3	90	0.00	29.931 
22:40	62.6	62.6	62.6	78	55.6	0	3	90	0.00	29.930 
22:45	62.4	62.4	62.4	79	55.8	1	4	135	0.00	29.930 
22:50	62.3	62.3	62.3	79	55.7	1	2	68	0.00	29.929 
22:55	62.1	62.1	62.1	80	55.9	0	2	68	0.00	29.930 
23:00	62.0	62.0	62.0	80	55.8	0	1	68	0.00	29.929 
23:05	61.8	61.8	61.8	80	55.6	0	2	68	0.00	29.927 
23:10	61.6	61.6	61.6	80	55.4	0	2	68	0.00	29.928 
23:15	61.5	61.5	61.5	81	55.6	0	2	68	0.00	29.927 
23:20	61.5	61.5	61.5	81	55.6	0	2	68	0.00	29.926 
23:25	61.5	61.5	61.5	81	55.6	1	3	135	0.00	29.926 
23:30	61.5	61.5	61.5	82	55.9	1	5	90	0.00	29.925 
23:35	61.5	61.5	61.5	82	55.9	0	1	112	0.00	29.923 
23:40	61.5	61.5	61.5	82	55.9	1	3	112	0.00	29.924 
23:45	61.3	61.3	61.3	82	55.8	0	2	112	0.00	29.925 
23:50	61.3	61.3	61.3	82	55.8	0	1	112	0.00	29.925 
23:55	61.2	61.2	61.2	83	56.0	0	3	112	0.00	29.924 

CoCoRaHS
IN-AL-39
A2 Web Hosting
Creative Commons License
GoDaddy
Look for:

loaded 2017-10-17 00:22:42 • last modified 2010-11-18 10:43:29
Privacy PolicyDisclaimer
• wx.awcolley.com is powered by PmWiki v.2002016 •
• all content (unless otherwise noted) © 2017 A W Colley